Camamu, Brazil
Current Conditions -  °F | °C
As of 6:00 PM on Friday 19 Dec 2014 (Local Time) from SBIL Reporting Station
Light Rain Light Rain  
Wind Chill: 77°   Ceiling: 2000
Heat Index: 78°   Visibility: 3mi
Dew Point: 73°   Wind: 10mph
Humidity: 89%   Direction: 70°ENE
Pressure: NA   Gusts: NA
Location:  13.94°S, 39.1°W
Report Text: SBIL 192100Z 07009KT 5000 -RA BR SCT010 BKN020 BKN070 25/23 Q1012
Loading
Personal Weather Stations






























Interactive Weather Map New forecast layout! Learn more

10-Day Weather Forecast

Advertisements
Track Severe Weather on mobile